Accueil
METAR-TAF:

METAR-TAF

Aéroports :

Wattisham, Angleterre

latitude: 52-07N, longitude: 000-58E, altitude: 87 m

Observation

Le bulletin a été fait il y a 53 minutes, à 12:50 UTC
Vent 10 kt de nord-ouest
Température 6°C
Humidité 87%
Pression 1036 hPa
Visibilité 10 km ou plus

METAR: EGUW 221250Z AUTO 31010KT 9999 FEW013/// 06/04 Q1036

Heure: 13:43 (13:43 UTC)

Prévision

Le bulletin a été fait il y a 13 minutes, à 13:30 UTC
Prévision valable du 21 à 15 UTC au 21 à 19 UTC
Vent 8 kt de ouest/nord-ouest
Visibilité 10 km ou plus
Nuages épars à une hauteur de 3000 ft
Temporairement
du 21 à 15 UTC au 21 à 19 UTC
Nuages fragmentés à une hauteur de 2200 ft

TAF: EGUW 211330Z 2115/2119 30008KT 9999 SCT030 TEMPO 2115/2119 BKN022

Observations et prévisions météorologiques de plus de 4000 aéroports (messages METAR et TAF).

Les stations disponibles sont représentées par des disques jaunes et rouges sur la carte.

Passer la souris dessus pour voir le nom de la station.

Cliquer dessus pour voir les observations et prévisions météorologiques.

Pour changer de carte: cliquez sur les boutons verts avec une croix noire pour zoomer, sur le bouton vert avec un tiret pour effectuer un zoom arrière, ou sur les flèches vertes pour les cartes adjacentes.


METAR-TAF: